sensor_id;sensor_type;location;lat;lon;timestamp;temperature;humidity
4215;DHT22;2121;48.062;7.850;2024-03-23T00:55:43;15.40;95.30
4215;DHT22;2121;48.062;7.850;2024-03-23T00:58:08;15.50;95.40
4215;DHT22;2121;48.062;7.850;2024-03-23T01:00:34;15.40;95.40
4215;DHT22;2121;48.062;7.850;2024-03-23T01:03:01;15.30;95.60
4215;DHT22;2121;48.062;7.850;2024-03-23T01:05:27;15.30;95.40
4215;DHT22;2121;48.062;7.850;2024-03-23T01:07:52;15.40;95.60
4215;DHT22;2121;48.062;7.850;2024-03-23T01:10:18;15.50;95.50
4215;DHT22;2121;48.062;7.850;2024-03-23T01:12:45;15.50;95.50
4215;DHT22;2121;48.062;7.850;2024-03-23T01:15:11;15.50;95.40
4215;DHT22;2121;48.062;7.850;2024-03-23T01:17:37;15.50;95.30
4215;DHT22;2121;48.062;7.850;2024-03-23T01:20:02;15.50;95.30
4215;DHT22;2121;48.062;7.850;2024-03-23T01:22:29;15.50;95.30
4215;DHT22;2121;48.062;7.850;2024-03-23T01:24:55;15.50;95.30
4215;DHT22;2121;48.062;7.850;2024-03-23T01:27:20;15.60;95.30
4215;DHT22;2121;48.062;7.850;2024-03-23T01:29:46;15.60;95.20
4215;DHT22;2121;48.062;7.850;2024-03-23T01:32:12;15.60;95.20
4215;DHT22;2121;48.062;7.850;2024-03-23T01:34:38;15.60;95.40
4215;DHT22;2121;48.062;7.850;2024-03-23T01:37:04;15.60;95.30
4215;DHT22;2121;48.062;7.850;2024-03-23T01:39:30;15.50;95.50
4215;DHT22;2121;48.062;7.850;2024-03-23T01:41:55;15.40;95.40
4215;DHT22;2121;48.062;7.850;2024-03-23T01:44:21;15.30;95.60
4215;DHT22;2121;48.062;7.850;2024-03-23T01:46:47;15.30;95.50
4215;DHT22;2121;48.062;7.850;2024-03-23T01:49:13;15.20;95.60
4215;DHT22;2121;48.062;7.850;2024-03-23T01:51:39;15.10;95.80
4215;DHT22;2121;48.062;7.850;2024-03-23T01:54:06;15.10;95.80
4215;DHT22;2121;48.062;7.850;2024-03-23T01:56:33;15.10;95.80
4215;DHT22;2121;48.062;7.850;2024-03-23T01:59:04;15.10;95.80
4215;DHT22;2121;48.062;7.850;2024-03-23T02:01:36;15.10;95.90
4215;DHT22;2121;48.062;7.850;2024-03-23T02:04:01;15.00;96.10
4215;DHT22;2121;48.062;7.850;2024-03-23T02:06:27;14.90;96.10
4215;DHT22;2121;48.062;7.850;2024-03-23T02:08:56;15.00;96.20
4215;DHT22;2121;48.062;7.850;2024-03-23T02:11:22;15.00;96.40
4215;DHT22;2121;48.062;7.850;2024-03-23T02:13:48;15.00;96.40
4215;DHT22;2121;48.062;7.850;2024-03-23T02:16:14;15.10;96.60
4215;DHT22;2121;48.062;7.850;2024-03-23T02:18:39;15.10;96.60
4215;DHT22;2121;48.062;7.850;2024-03-23T02:21:05;15.10;96.60
4215;DHT22;2121;48.062;7.850;2024-03-23T02:23:31;15.20;96.70
4215;DHT22;2121;48.062;7.850;2024-03-23T02:25:56;15.10;96.80
4215;DHT22;2121;48.062;7.850;2024-03-23T02:28:22;15.00;96.80
4215;DHT22;2121;48.062;7.850;2024-03-23T02:30:51;15.00;97.00
4215;DHT22;2121;48.062;7.850;2024-03-23T02:33:17;14.90;97.10
4215;DHT22;2121;48.062;7.850;2024-03-23T02:35:47;14.80;97.20
4215;DHT22;2121;48.062;7.850;2024-03-23T02:38:12;14.80;97.40
4215;DHT22;2121;48.062;7.850;2024-03-23T02:40:38;14.80;97.40
4215;DHT22;2121;48.062;7.850;2024-03-23T02:43:04;14.70;97.60
4215;DHT22;2121;48.062;7.850;2024-03-23T02:45:30;14.70;97.70
4215;DHT22;2121;48.062;7.850;2024-03-23T02:47:56;14.60;97.90
4215;DHT22;2121;48.062;7.850;2024-03-23T02:50:22;14.60;97.90
4215;DHT22;2121;48.062;7.850;2024-03-23T02:52:48;14.60;98.00
4215;DHT22;2121;48.062;7.850;2024-03-23T02:55:14;14.50;98.20
4215;DHT22;2121;48.062;7.850;2024-03-23T02:57:41;14.40;98.30
4215;DHT22;2121;48.062;7.850;2024-03-23T03:00:07;14.40;98.40
4215;DHT22;2121;48.062;7.850;2024-03-23T03:02:34;14.30;98.60
4215;DHT22;2121;48.062;7.850;2024-03-23T03:05:00;14.40;98.50
4215;DHT22;2121;48.062;7.850;2024-03-23T03:07:25;14.30;98.60
4215;DHT22;2121;48.062;7.850;2024-03-23T03:09:51;14.40;98.60
4215;DHT22;2121;48.062;7.850;2024-03-23T03:12:17;14.40;98.70
4215;DHT22;2121;48.062;7.850;2024-03-23T03:14:42;14.40;98.80
4215;DHT22;2121;48.062;7.850;2024-03-23T03:17:08;14.40;98.70
4215;DHT22;2121;48.062;7.850;2024-03-23T03:19:34;14.50;98.70
4215;DHT22;2121;48.062;7.850;2024-03-23T03:22:00;14.50;98.70
4215;DHT22;2121;48.062;7.850;2024-03-23T03:24:25;14.50;98.80
4215;DHT22;2121;48.062;7.850;2024-03-23T03:26:51;14.50;98.70
4215;DHT22;2121;48.062;7.850;2024-03-23T03:29:17;14.50;98.80
4215;DHT22;2121;48.062;7.850;2024-03-23T03:31:43;14.50;98.90
4215;DHT22;2121;48.062;7.850;2024-03-23T03:34:09;14.50;98.90
4215;DHT22;2121;48.062;7.850;2024-03-23T03:36:35;14.50;99.10
4215;DHT22;2121;48.062;7.850;2024-03-23T03:39:00;14.60;99.10
4215;DHT22;2121;48.062;7.850;2024-03-23T03:41:28;14.60;99.10
4215;DHT22;2121;48.062;7.850;2024-03-23T03:43:54;14.60;99.20
4215;DHT22;2121;48.062;7.850;2024-03-23T03:46:20;14.50;99.20
4215;DHT22;2121;48.062;7.850;2024-03-23T03:48:46;14.40;99.40
4215;DHT22;2121;48.062;7.850;2024-03-23T03:51:13;14.40;99.50
4215;DHT22;2121;48.062;7.850;2024-03-23T03:53:39;14.40;99.70
4215;DHT22;2121;48.062;7.850;2024-03-23T03:56:05;14.40;99.80
4215;DHT22;2121;48.062;7.850;2024-03-23T03:58:31;14.30;99.90
4215;DHT22;2121;48.062;7.850;2024-03-23T04:00:56;14.30;99.90
4215;DHT22;2121;48.062;7.850;2024-03-23T04:03:22;14.20;99.90
4215;DHT22;2121;48.062;7.850;2024-03-23T04:05:54;14.20;99.90
4215;DHT22;2121;48.062;7.850;2024-03-23T04:08:20;14.20;99.90
4215;DHT22;2121;48.062;7.850;2024-03-23T04:10:47;14.20;99.90
4215;DHT22;2121;48.062;7.850;2024-03-23T04:13:13;14.10;99.90
4215;DHT22;2121;48.062;7.850;2024-03-23T04:15:39;14.10;99.90
4215;DHT22;2121;48.062;7.850;2024-03-23T04:18:05;14.00;99.90
4215;DHT22;2121;48.062;7.850;2024-03-23T04:20:31;13.90;99.90
4215;DHT22;2121;48.062;7.850;2024-03-23T04:22:58;13.90;99.90
4215;DHT22;2121;48.062;7.850;2024-03-23T04:25:24;13.80;99.90
4215;DHT22;2121;48.062;7.850;2024-03-23T04:27:49;13.90;99.90
4215;DHT22;2121;48.062;7.850;2024-03-23T04:30:15;13.90;99.90
4215;DHT22;2121;48.062;7.850;2024-03-23T04:32:42;14.00;99.90
4215;DHT22;2121;48.062;7.850;2024-03-23T04:35:08;14.00;99.90
4215;DHT22;2121;48.062;7.850;2024-03-23T04:37:35;14.00;99.90
4215;DHT22;2121;48.062;7.850;2024-03-23T04:40:02;14.00;99.90
4215;DHT22;2121;48.062;7.850;2024-03-23T04:42:29;14.00;99.90
4215;DHT22;2121;48.062;7.850;2024-03-23T04:44:54;14.00;99.90
4215;DHT22;2121;48.062;7.850;2024-03-23T04:47:20;14.00;99.90
4215;DHT22;2121;48.062;7.850;2024-03-23T04:49:46;13.90;99.90
4215;DHT22;2121;48.062;7.850;2024-03-23T04:52:12;13.70;99.90
4215;DHT22;2121;48.062;7.850;2024-03-23T04:54:37;13.30;99.90
4215;DHT22;2121;48.062;7.850;2024-03-23T04:57:06;12.80;99.90
4215;DHT22;2121;48.062;7.850;2024-03-23T04:59:32;12.50;99.90
4215;DHT22;2121;48.062;7.850;2024-03-23T05:01:58;12.20;99.90
4215;DHT22;2121;48.062;7.850;2024-03-23T05:04:25;12.20;99.90
4215;DHT22;2121;48.062;7.850;2024-03-23T05:06:51;12.00;99.90
4215;DHT22;2121;48.062;7.850;2024-03-23T05:09:16;11.90;99.90
4215;DHT22;2121;48.062;7.850;2024-03-23T05:11:42;11.90;99.90
4215;DHT22;2121;48.062;7.850;2024-03-23T05:14:13;11.80;99.90
4215;DHT22;2121;48.062;7.850;2024-03-23T05:16:39;11.70;99.90
4215;DHT22;2121;48.062;7.850;2024-03-23T05:19:05;11.60;99.90
4215;DHT22;2121;48.062;7.850;2024-03-23T05:21:30;11.50;99.90
4215;DHT22;2121;48.062;7.850;2024-03-23T05:23:56;11.30;99.90
4215;DHT22;2121;48.062;7.850;2024-03-23T05:26:22;11.20;99.90
4215;DHT22;2121;48.062;7.850;2024-03-23T05:28:48;11.00;99.90
4215;DHT22;2121;48.062;7.850;2024-03-23T05:31:26;10.90;99.90
4215;DHT22;2121;48.062;7.850;2024-03-23T05:33:53;10.70;99.90
4215;DHT22;2121;48.062;7.850;2024-03-23T05:36:19;10.60;99.90
4215;DHT22;2121;48.062;7.850;2024-03-23T05:38:45;10.50;99.90
4215;DHT22;2121;48.062;7.850;2024-03-23T05:41:12;10.50;99.90
4215;DHT22;2121;48.062;7.850;2024-03-23T05:43:37;10.40;99.90
4215;DHT22;2121;48.062;7.850;2024-03-23T05:46:03;10.30;99.90
4215;DHT22;2121;48.062;7.850;2024-03-23T05:48:35;10.30;99.90
4215;DHT22;2121;48.062;7.850;2024-03-23T05:51:02;10.30;99.90
4215;DHT22;2121;48.062;7.850;2024-03-23T05:53:28;10.20;99.90
4215;DHT22;2121;48.062;7.850;2024-03-23T05:56:04;10.20;99.90
4215;DHT22;2121;48.062;7.850;2024-03-23T05:58:30;10.10;99.90
4215;DHT22;2121;48.062;7.850;2024-03-23T06:01:00;10.10;99.90
4215;DHT22;2121;48.062;7.850;2024-03-23T06:03:27;10.20;99.90
4215;DHT22;2121;48.062;7.850;2024-03-23T06:05:54;10.20;99.90
4215;DHT22;2121;48.062;7.850;2024-03-23T06:08:20;10.10;99.90
4215;DHT22;2121;48.062;7.850;2024-03-23T06:10:46;9.90;99.90
4215;DHT22;2121;48.062;7.850;2024-03-23T06:13:12;9.70;99.90
4215;DHT22;2121;48.062;7.850;2024-03-23T06:15:39;9.60;99.90
4215;DHT22;2121;48.062;7.850;2024-03-23T06:18:05;9.40;99.90
4215;DHT22;2121;48.062;7.850;2024-03-23T06:20:31;9.30;99.90
4215;DHT22;2121;48.062;7.850;2024-03-23T06:22:57;9.30;99.90
4215;DHT22;2121;48.062;7.850;2024-03-23T06:25:23;9.20;99.90
4215;DHT22;2121;48.062;7.850;2024-03-23T06:27:48;9.30;99.90
4215;DHT22;2121;48.062;7.850;2024-03-23T06:30:14;9.30;99.90
4215;DHT22;2121;48.062;7.850;2024-03-23T06:32:40;9.30;99.90
4215;DHT22;2121;48.062;7.850;2024-03-23T06:35:06;9.40;99.90
4215;DHT22;2121;48.062;7.850;2024-03-23T06:37:35;9.30;99.90
4215;DHT22;2121;48.062;7.850;2024-03-23T06:40:01;9.20;99.90
4215;DHT22;2121;48.062;7.850;2024-03-23T06:42:28;9.30;99.90
4215;DHT22;2121;48.062;7.850;2024-03-23T06:44:53;9.20;99.90
4215;DHT22;2121;48.062;7.850;2024-03-23T06:47:19;9.20;99.90
4215;DHT22;2121;48.062;7.850;2024-03-23T06:49:45;9.30;99.90
4215;DHT22;2121;48.062;7.850;2024-03-23T06:52:10;9.30;99.90
4215;DHT22;2121;48.062;7.850;2024-03-23T06:54:36;9.30;99.90
4215;DHT22;2121;48.062;7.850;2024-03-23T06:57:01;9.40;99.90
4215;DHT22;2121;48.062;7.850;2024-03-23T06:59:28;9.50;99.90
4215;DHT22;2121;48.062;7.850;2024-03-23T07:01:56;9.60;99.90
4215;DHT22;2121;48.062;7.850;2024-03-23T07:04:22;9.70;99.90
4215;DHT22;2121;48.062;7.850;2024-03-23T07:06:48;9.70;99.90
4215;DHT22;2121;48.062;7.850;2024-03-23T07:09:13;9.80;99.90
4215;DHT22;2121;48.062;7.850;2024-03-23T07:11:39;9.80;99.90
4215;DHT22;2121;48.062;7.850;2024-03-23T07:14:05;9.80;99.90
4215;DHT22;2121;48.062;7.850;2024-03-23T07:16:31;9.80;99.90
4215;DHT22;2121;48.062;7.850;2024-03-23T07:18:57;9.70;99.90
4215;DHT22;2121;48.062;7.850;2024-03-23T07:21:22;9.70;99.90
4215;DHT22;2121;48.062;7.850;2024-03-23T07:23:48;9.70;99.90
4215;DHT22;2121;48.062;7.850;2024-03-23T07:26:14;9.70;99.90
4215;DHT22;2121;48.062;7.850;2024-03-23T07:28:40;9.60;99.90
4215;DHT22;2121;48.062;7.850;2024-03-23T07:31:13;9.40;99.90
4215;DHT22;2121;48.062;7.850;2024-03-23T07:33:47;9.10;99.90
4215;DHT22;2121;48.062;7.850;2024-03-23T07:36:14;8.80;99.90
4215;DHT22;2121;48.062;7.850;2024-03-23T07:38:43;8.60;99.90
4215;DHT22;2121;48.062;7.850;2024-03-23T07:41:17;8.50;99.90
4215;DHT22;2121;48.062;7.850;2024-03-23T07:43:43;8.40;99.90
4215;DHT22;2121;48.062;7.850;2024-03-23T07:46:14;8.40;99.90
4215;DHT22;2121;48.062;7.850;2024-03-23T07:48:40;8.40;99.90
4215;DHT22;2121;48.062;7.850;2024-03-23T07:51:10;8.30;99.90
4215;DHT22;2121;48.062;7.850;2024-03-23T07:53:43;8.10;99.90
4215;DHT22;2121;48.062;7.850;2024-03-23T07:56:10;8.00;99.90
4215;DHT22;2121;48.062;7.850;2024-03-23T07:58:36;7.90;99.90
4215;DHT22;2121;48.062;7.850;2024-03-23T08:01:07;7.90;99.90
4215;DHT22;2121;48.062;7.850;2024-03-23T08:03:41;7.90;99.90
4215;DHT22;2121;48.062;7.850;2024-03-23T08:06:15;7.90;99.90
4215;DHT22;2121;48.062;7.850;2024-03-23T08:08:43;7.90;99.90
4215;DHT22;2121;48.062;7.850;2024-03-23T08:11:11;8.00;99.90
4215;DHT22;2121;48.062;7.850;2024-03-23T08:13:38;8.10;99.90
4215;DHT22;2121;48.062;7.850;2024-03-23T08:16:05;8.20;99.90
4215;DHT22;2121;48.062;7.850;2024-03-23T08:18:31;8.40;99.90
4215;DHT22;2121;48.062;7.850;2024-03-23T08:21:06;8.40;99.90
4215;DHT22;2121;48.062;7.850;2024-03-23T08:23:33;8.40;99.90
4215;DHT22;2121;48.062;7.850;2024-03-23T08:26:07;8.50;99.90
4215;DHT22;2121;48.062;7.850;2024-03-23T08:28:34;8.70;99.90
4215;DHT22;2121;48.062;7.850;2024-03-23T08:31:02;9.00;99.90
4215;DHT22;2121;48.062;7.850;2024-03-23T08:33:28;9.30;99.90
4215;DHT22;2121;48.062;7.850;2024-03-23T08:36:00;9.60;99.90
4215;DHT22;2121;48.062;7.850;2024-03-23T08:38:27;9.60;99.90
4215;DHT22;2121;48.062;7.850;2024-03-23T08:41:01;9.60;99.90
4215;DHT22;2121;48.062;7.850;2024-03-23T08:43:29;9.70;99.90
4215;DHT22;2121;48.062;7.850;2024-03-23T08:46:12;9.80;99.90
4215;DHT22;2121;48.062;7.850;2024-03-23T08:48:40;10.10;99.90
4215;DHT22;2121;48.062;7.850;2024-03-23T08:51:10;10.20;99.90
4215;DHT22;2121;48.062;7.850;2024-03-23T08:53:37;9.90;99.90
4215;DHT22;2121;48.062;7.850;2024-03-23T08:56:06;9.80;99.90
4215;DHT22;2121;48.062;7.850;2024-03-23T08:58:33;9.80;99.90
4215;DHT22;2121;48.062;7.850;2024-03-23T09:01:10;10.20;99.90
4215;DHT22;2121;48.062;7.850;2024-03-23T09:03:37;10.50;99.90
4215;DHT22;2121;48.062;7.850;2024-03-23T09:06:13;10.40;99.90
4215;DHT22;2121;48.062;7.850;2024-03-23T09:08:40;10.20;99.90
4215;DHT22;2121;48.062;7.850;2024-03-23T09:11:07;10.40;99.80
4215;DHT22;2121;48.062;7.850;2024-03-23T09:13:34;10.50;99.70
4215;DHT22;2121;48.062;7.850;2024-03-23T09:16:01;10.80;99.90
4215;DHT22;2121;48.062;7.850;2024-03-23T09:18:27;11.00;99.40
4215;DHT22;2121;48.062;7.850;2024-03-23T09:20:53;10.90;99.90
4215;DHT22;2121;48.062;7.850;2024-03-23T09:23:20;11.10;99.40
4215;DHT22;2121;48.062;7.850;2024-03-23T09:25:46;11.40;99.00
4215;DHT22;2121;48.062;7.850;2024-03-23T09:28:12;11.70;98.10
4215;DHT22;2121;48.062;7.850;2024-03-23T09:30:38;11.80;97.20
4215;DHT22;2121;48.062;7.850;2024-03-23T09:33:10;11.80;96.70
4215;DHT22;2121;48.062;7.850;2024-03-23T09:35:41;11.90;96.40
4215;DHT22;2121;48.062;7.850;2024-03-23T09:38:07;11.60;96.60
4215;DHT22;2121;48.062;7.850;2024-03-23T09:40:34;11.50;96.40
4215;DHT22;2121;48.062;7.850;2024-03-23T09:43:06;11.20;96.40
4215;DHT22;2121;48.062;7.850;2024-03-23T09:45:35;11.40;97.20
4215;DHT22;2121;48.062;7.850;2024-03-23T09:48:04;11.90;97.40
4215;DHT22;2121;48.062;7.850;2024-03-23T09:50:30;12.30;96.40
4215;DHT22;2121;48.062;7.850;2024-03-23T09:52:56;12.30;94.80
4215;DHT22;2121;48.062;7.850;2024-03-23T09:55:21;12.00;94.80
4215;DHT22;2121;48.062;7.850;2024-03-23T09:57:47;11.80;95.10
4215;DHT22;2121;48.062;7.850;2024-03-23T10:00:13;11.50;95.50
4215;DHT22;2121;48.062;7.850;2024-03-23T10:02:39;11.40;95.00
4215;DHT22;2121;48.062;7.850;2024-03-23T10:05:08;11.20;94.70
4215;DHT22;2121;48.062;7.850;2024-03-23T10:07:45;10.90;95.00
4215;DHT22;2121;48.062;7.850;2024-03-23T10:10:11;10.70;94.70
4215;DHT22;2121;48.062;7.850;2024-03-23T10:12:45;10.60;94.60
4215;DHT22;2121;48.062;7.850;2024-03-23T10:15:24;10.50;94.50
4215;DHT22;2121;48.062;7.850;2024-03-23T10:17:52;10.30;94.30
4215;DHT22;2121;48.062;7.850;2024-03-23T10:20:22;10.20;94.90
4215;DHT22;2121;48.062;7.850;2024-03-23T10:22:48;10.10;95.50
4215;DHT22;2121;48.062;7.850;2024-03-23T10:25:15;10.20;95.80
4215;DHT22;2121;48.062;7.850;2024-03-23T10:27:41;10.10;96.10
4215;DHT22;2121;48.062;7.850;2024-03-23T10:30:13;10.10;95.70
4215;DHT22;2121;48.062;7.850;2024-03-23T10:32:42;9.90;96.80
4215;DHT22;2121;48.062;7.850;2024-03-23T10:35:18;9.40;98.00
4215;DHT22;2121;48.062;7.850;2024-03-23T10:37:47;8.20;99.90
4215;DHT22;2121;48.062;7.850;2024-03-23T10:40:15;7.20;99.90
4215;DHT22;2121;48.062;7.850;2024-03-23T10:42:41;6.50;99.90
4215;DHT22;2121;48.062;7.850;2024-03-23T10:45:07;6.20;99.90
4215;DHT22;2121;48.062;7.850;2024-03-23T10:47:35;5.80;99.90
4215;DHT22;2121;48.062;7.850;2024-03-23T10:50:03;5.60;99.90
4215;DHT22;2121;48.062;7.850;2024-03-23T10:52:31;5.60;99.90
4215;DHT22;2121;48.062;7.850;2024-03-23T10:54:59;5.60;99.90
4215;DHT22;2121;48.062;7.850;2024-03-23T10:57:34;5.50;99.90
4215;DHT22;2121;48.062;7.850;2024-03-23T11:00:06;5.50;99.90
4215;DHT22;2121;48.062;7.850;2024-03-23T11:02:32;5.60;99.90
4215;DHT22;2121;48.062;7.850;2024-03-23T11:04:58;5.70;99.90
4215;DHT22;2121;48.062;7.850;2024-03-23T11:09:50;6.40;99.90
4215;DHT22;2121;48.062;7.850;2024-03-23T11:15:10;6.90;99.90
4215;DHT22;2121;48.062;7.850;2024-03-23T11:17:37;7.10;99.90
4215;DHT22;2121;48.062;7.850;2024-03-23T11:20:03;7.40;99.90
4215;DHT22;2121;48.062;7.850;2024-03-23T11:22:46;7.50;99.90
4215;DHT22;2121;48.062;7.850;2024-03-23T11:25:16;7.40;99.90
4215;DHT22;2121;48.062;7.850;2024-03-23T11:27:44;7.50;99.90
4215;DHT22;2121;48.062;7.850;2024-03-23T11:30:16;7.70;99.90
4215;DHT22;2121;48.062;7.850;2024-03-23T11:32:46;7.80;99.90
4215;DHT22;2121;48.062;7.850;2024-03-23T11:38:15;8.30;99.90
4215;DHT22;2121;48.062;7.850;2024-03-23T11:40:46;8.50;99.90
4215;DHT22;2121;48.062;7.850;2024-03-23T11:43:14;9.00;99.90
4215;DHT22;2121;48.062;7.850;2024-03-23T11:45:49;9.40;99.90
4215;DHT22;2121;48.062;7.850;2024-03-23T11:48:20;9.90;99.90
4215;DHT22;2121;48.062;7.850;2024-03-23T11:50:50;10.50;99.90
4215;DHT22;2121;48.062;7.850;2024-03-23T11:53:18;10.80;99.90
4215;DHT22;2121;48.062;7.850;2024-03-23T11:55:55;10.60;99.90
4215;DHT22;2121;48.062;7.850;2024-03-23T11:58:22;10.20;99.90
4215;DHT22;2121;48.062;7.850;2024-03-23T12:00:55;10.20;99.90
4215;DHT22;2121;48.062;7.850;2024-03-23T12:03:23;10.10;99.90
4215;DHT22;2121;48.062;7.850;2024-03-23T12:06:01;10.10;99.90
4215;DHT22;2121;48.062;7.850;2024-03-23T12:08:29;10.00;99.90
4215;DHT22;2121;48.062;7.850;2024-03-23T12:11:11;9.70;99.90
4215;DHT22;2121;48.062;7.850;2024-03-23T12:13:39;9.70;99.90
4215;DHT22;2121;48.062;7.850;2024-03-23T12:16:18;9.60;99.90
4215;DHT22;2121;48.062;7.850;2024-03-23T12:18:47;9.70;99.90
4215;DHT22;2121;48.062;7.850;2024-03-23T12:21:15;9.80;99.90
4215;DHT22;2121;48.062;7.850;2024-03-23T12:23:42;9.90;99.90
4215;DHT22;2121;48.062;7.850;2024-03-23T12:26:10;9.90;99.90
4215;DHT22;2121;48.062;7.850;2024-03-23T12:28:37;9.90;99.90
4215;DHT22;2121;48.062;7.850;2024-03-23T12:31:03;9.80;99.90
4215;DHT22;2121;48.062;7.850;2024-03-23T12:33:29;9.90;99.90
4215;DHT22;2121;48.062;7.850;2024-03-23T12:35:55;9.90;99.90
4215;DHT22;2121;48.062;7.850;2024-03-23T12:38:20;9.90;99.90
4215;DHT22;2121;48.062;7.850;2024-03-23T12:40:50;9.90;99.90
4215;DHT22;2121;48.062;7.850;2024-03-23T12:43:16;9.70;99.90
4215;DHT22;2121;48.062;7.850;2024-03-23T12:45:49;9.60;99.90
4215;DHT22;2121;48.062;7.850;2024-03-23T12:48:15;9.50;99.90
4215;DHT22;2121;48.062;7.850;2024-03-23T12:50:41;9.60;99.90
4215;DHT22;2121;48.062;7.850;2024-03-23T12:53:07;9.40;99.90
4215;DHT22;2121;48.062;7.850;2024-03-23T12:55:35;9.30;99.20
4215;DHT22;2121;48.062;7.850;2024-03-23T12:58:01;9.30;99.40
4215;DHT22;2121;48.062;7.850;2024-03-23T13:00:27;9.30;98.90
4215;DHT22;2121;48.062;7.850;2024-03-23T13:02:53;9.30;98.90
4215;DHT22;2121;48.062;7.850;2024-03-23T13:05:19;9.10;98.70
4215;DHT22;2121;48.062;7.850;2024-03-23T13:07:44;9.00;98.70
4215;DHT22;2121;48.062;7.850;2024-03-23T13:10:10;8.60;99.90
4215;DHT22;2121;48.062;7.850;2024-03-23T13:12:35;8.20;99.90
4215;DHT22;2121;48.062;7.850;2024-03-23T13:15:01;8.00;99.90
4215;DHT22;2121;48.062;7.850;2024-03-23T13:17:27;7.80;99.90
4215;DHT22;2121;48.062;7.850;2024-03-23T13:19:56;7.90;99.90
4215;DHT22;2121;48.062;7.850;2024-03-23T13:22:22;8.30;99.90
4215;DHT22;2121;48.062;7.850;2024-03-23T13:24:47;8.90;99.90
4215;DHT22;2121;48.062;7.850;2024-03-23T13:27:13;9.40;99.90
4215;DHT22;2121;48.062;7.850;2024-03-23T13:29:39;9.50;99.90
4215;DHT22;2121;48.062;7.850;2024-03-23T13:32:05;9.40;99.90
4215;DHT22;2121;48.062;7.850;2024-03-23T13:34:31;9.50;99.90
4215;DHT22;2121;48.062;7.850;2024-03-23T13:36:58;10.00;99.40
4215;DHT22;2121;48.062;7.850;2024-03-23T13:39:24;10.70;99.00
4215;DHT22;2121;48.062;7.850;2024-03-23T13:41:51;11.60;97.90
4215;DHT22;2121;48.062;7.850;2024-03-23T13:44:16;12.20;97.30
4215;DHT22;2121;48.062;7.850;2024-03-23T13:46:42;12.70;96.10
4215;DHT22;2121;48.062;7.850;2024-03-23T13:49:28;13.00;94.90
4215;DHT22;2121;48.062;7.850;2024-03-23T13:51:55;13.40;94.50
4215;DHT22;2121;48.062;7.850;2024-03-23T13:54:23;13.00;93.50
4215;DHT22;2121;48.062;7.850;2024-03-23T13:56:54;12.70;94.60
4215;DHT22;2121;48.062;7.850;2024-03-23T13:59:20;12.50;93.90
4215;DHT22;2121;48.062;7.850;2024-03-23T14:01:48;12.00;93.60
4215;DHT22;2121;48.062;7.850;2024-03-23T14:04:14;11.50;92.60
4215;DHT22;2121;48.062;7.850;2024-03-23T14:06:42;11.50;92.80
4215;DHT22;2121;48.062;7.850;2024-03-23T14:09:10;11.10;92.60
4215;DHT22;2121;48.062;7.850;2024-03-23T14:11:37;10.90;92.60
4215;DHT22;2121;48.062;7.850;2024-03-23T14:14:03;10.70;92.50
4215;DHT22;2121;48.062;7.850;2024-03-23T14:16:32;10.50;93.10
4215;DHT22;2121;48.062;7.850;2024-03-23T14:18:58;10.50;93.50
4215;DHT22;2121;48.062;7.850;2024-03-23T14:21:24;10.40;93.10
4215;DHT22;2121;48.062;7.850;2024-03-23T14:23:50;10.40;93.70
4215;DHT22;2121;48.062;7.850;2024-03-23T14:26:16;10.50;92.90
4215;DHT22;2121;48.062;7.850;2024-03-23T14:28:42;10.50;91.60
4215;DHT22;2121;48.062;7.850;2024-03-23T14:31:07;10.70;89.70
4215;DHT22;2121;48.062;7.850;2024-03-23T14:33:39;10.70;89.20
4215;DHT22;2121;48.062;7.850;2024-03-23T14:36:11;10.70;87.50
4215;DHT22;2121;48.062;7.850;2024-03-23T14:38:36;10.60;87.30
4215;DHT22;2121;48.062;7.850;2024-03-23T14:41:03;10.60;88.60
4215;DHT22;2121;48.062;7.850;2024-03-23T14:43:29;10.50;88.40
4215;DHT22;2121;48.062;7.850;2024-03-23T14:46:09;10.50;88.30
4215;DHT22;2121;48.062;7.850;2024-03-23T14:48:38;10.40;90.30
4215;DHT22;2121;48.062;7.850;2024-03-23T14:51:05;10.30;91.90
4215;DHT22;2121;48.062;7.850;2024-03-23T14:53:32;10.10;93.50
4215;DHT22;2121;48.062;7.850;2024-03-23T14:56:00;10.00;94.30
4215;DHT22;2121;48.062;7.850;2024-03-23T14:58:26;10.10;94.30
4215;DHT22;2121;48.062;7.850;2024-03-23T15:00:52;10.50;94.30
4215;DHT22;2121;48.062;7.850;2024-03-23T15:03:18;10.80;93.60
4215;DHT22;2121;48.062;7.850;2024-03-23T15:05:58;10.90;92.80
4215;DHT22;2121;48.062;7.850;2024-03-23T15:08:25;10.80;92.70
4215;DHT22;2121;48.062;7.850;2024-03-23T15:10:51;10.70;93.10
4215;DHT22;2121;48.062;7.850;2024-03-23T15:13:17;10.40;93.30
4215;DHT22;2121;48.062;7.850;2024-03-23T15:15:44;10.20;94.30
4215;DHT22;2121;48.062;7.850;2024-03-23T15:18:13;10.00;95.00
4215;DHT22;2121;48.062;7.850;2024-03-23T15:20:54;9.70;94.70
4215;DHT22;2121;48.062;7.850;2024-03-23T15:23:20;9.60;95.80
4215;DHT22;2121;48.062;7.850;2024-03-23T15:25:56;9.50;96.40
4215;DHT22;2121;48.062;7.850;2024-03-23T15:28:26;9.30;96.60
4215;DHT22;2121;48.062;7.850;2024-03-23T15:31:03;9.10;96.80
4215;DHT22;2121;48.062;7.850;2024-03-23T15:33:29;8.90;96.80
4215;DHT22;2121;48.062;7.850;2024-03-23T15:35:59;8.80;97.50
4215;DHT22;2121;48.062;7.850;2024-03-23T15:38:28;8.00;99.90
4215;DHT22;2121;48.062;7.850;2024-03-23T15:40:57;7.20;99.90
4215;DHT22;2121;48.062;7.850;2024-03-23T15:43:23;6.80;99.90
4215;DHT22;2121;48.062;7.850;2024-03-23T15:45:59;6.60;99.90
4215;DHT22;2121;48.062;7.850;2024-03-23T15:48:29;6.50;99.90
4215;DHT22;2121;48.062;7.850;2024-03-23T15:50:57;6.50;99.90
4215;DHT22;2121;48.062;7.850;2024-03-23T15:53:25;6.50;99.90
4215;DHT22;2121;48.062;7.850;2024-03-23T15:58:23;6.50;99.90
4215;DHT22;2121;48.062;7.850;2024-03-23T16:03:28;6.50;99.90
4215;DHT22;2121;48.062;7.850;2024-03-23T16:06:00;6.60;99.90
4215;DHT22;2121;48.062;7.850;2024-03-23T16:08:26;6.70;99.90
4215;DHT22;2121;48.062;7.850;2024-03-23T16:10:53;6.70;99.90
4215;DHT22;2121;48.062;7.850;2024-03-23T16:13:19;6.70;99.90
4215;DHT22;2121;48.062;7.850;2024-03-23T16:15:54;6.80;99.90
4215;DHT22;2121;48.062;7.850;2024-03-23T16:18:24;7.00;99.90
4215;DHT22;2121;48.062;7.850;2024-03-23T16:20:56;7.20;99.90
4215;DHT22;2121;48.062;7.850;2024-03-23T16:23:23;7.60;99.90
4215;DHT22;2121;48.062;7.850;2024-03-23T16:25:53;8.00;99.90
4215;DHT22;2121;48.062;7.850;2024-03-23T16:28:33;9.40;99.90
4215;DHT22;2121;48.062;7.850;2024-03-23T16:31:06;9.40;99.90
4215;DHT22;2121;48.062;7.850;2024-03-23T16:33:38;8.60;99.90
4215;DHT22;2121;48.062;7.850;2024-03-23T16:36:07;8.00;99.90
4215;DHT22;2121;48.062;7.850;2024-03-23T16:38:39;7.50;99.90
4215;DHT22;2121;48.062;7.850;2024-03-23T16:41:09;7.30;99.90
4215;DHT22;2121;48.062;7.850;2024-03-23T16:43:38;7.20;99.90
4215;DHT22;2121;48.062;7.850;2024-03-23T16:46:06;7.10;99.90
4215;DHT22;2121;48.062;7.850;2024-03-23T16:48:37;7.10;99.90
4215;DHT22;2121;48.062;7.850;2024-03-23T16:51:08;7.40;99.90
4215;DHT22;2121;48.062;7.850;2024-03-23T16:53:35;8.90;99.90
4215;DHT22;2121;48.062;7.850;2024-03-23T16:56:08;9.60;99.90
4215;DHT22;2121;48.062;7.850;2024-03-23T16:58:36;9.00;99.90
4215;DHT22;2121;48.062;7.850;2024-03-23T17:03:34;8.20;99.90
4215;DHT22;2121;48.062;7.850;2024-03-23T17:06:04;8.00;99.90
4215;DHT22;2121;48.062;7.850;2024-03-23T17:08:33;7.60;99.90
4215;DHT22;2121;48.062;7.850;2024-03-23T17:11:00;7.50;99.90
4215;DHT22;2121;48.062;7.850;2024-03-23T17:13:27;7.40;99.90
4215;DHT22;2121;48.062;7.850;2024-03-23T17:15:53;7.30;99.90
4215;DHT22;2121;48.062;7.850;2024-03-23T17:18:19;7.20;99.90
4215;DHT22;2121;48.062;7.850;2024-03-23T17:20:45;7.30;99.90
4215;DHT22;2121;48.062;7.850;2024-03-23T17:23:11;7.30;99.90